This is the latest recevied weather packets stored in our database for station/object OK5TVR-6. If no packets are shown the sender has not sent any weather packets the latest 1 day(s).
| Time | Temp. | Humidity | Pressure | Rain* | Wind** | Luminosity | Snow |
|---|---|---|---|---|---|---|---|
| 1836274708 | 10.56° C | - | - | 0 mm | 0 m/s | - | - |
| 1778030765 | 11.11° C | - | - | 0 mm | 0 m/s | - | - |
| 1778029668 | 11.67° C | - | - | 0 mm | 0 m/s | - | - |
| 1778028571 | 11.67° C | - | - | 0 mm | 0 m/s | - | - |
| 1778027475 | 12.22° C | - | - | 0.25 mm | 0 m/s | - | - |
| 1778026378 | 12.22° C | - | - | 0.25 mm | 4.02 m/s, 0° | - | - |
| 1778025282 | 12.78° C | - | - | 0 mm | 7.15 m/s, 270° | - | - |
| 1778024185 | 13.33° C | - | - | 0 mm | 10.28 m/s, 270° | - | - |
| 1778023089 | 13.33° C | - | - | 0 mm | 2.24 m/s, 0° | - | - |
| 1778021992 | 13.89° C | - | - | 0 mm | 0 m/s | - | - |
| 1778020896 | 14.44° C | - | - | 0 mm | 8.05 m/s, 222° | - | - |
| 1778019799 | 14.44° C | - | - | 0 mm | 0 m/s | - | - |
| 1778018703 | 14.44° C | - | - | 0 mm | 5.36 m/s, 0° | - | - |
| 1778017606 | 14.44° C | - | - | 0 mm | 0 m/s | - | - |
| 1778016509 | 14.44° C | - | - | 0 mm | 8.05 m/s, 222° | - | - |
| 1778015413 | 14.44° C | - | - | 0 mm | 19.22 m/s, 0° | - | - |
| 1778014316 | 15° C | - | - | 1.27 mm | 0 m/s | - | - |
| 1778013220 | 14.44° C | - | - | 1.27 mm | 21.46 m/s, 222° | - | - |
| 1778012123 | 14.44° C | - | - | 1.27 mm | 25.48 m/s, 45° | - | - |
| 1778011027 | 15° C | - | - | 0.76 mm | 11.18 m/s, 0° | - | - |
| 1778009930 | 15° C | - | - | 2.03 mm | 16.54 m/s, 315° | - | - |
| 1778008833 | 15° C | - | - | 0 mm | 17.43 m/s, 0° | - | - |
| 1778007737 | 15° C | - | - | 0 mm | 25.03 m/s, 180° | - | - |
| 1778006640 | 14.44° C | - | - | 0 mm | 23.69 m/s, 270° | - | - |
| 1778005544 | 15.56° C | - | - | 20.83 mm | 2.24 m/s, 90° | - | - |
* Rain latest hour (hover to see other rain measurements)
** Current wind speed in m/s (hover to see current wind gust speed)